createdAt,value
2019-01-04T00:01:07.672Z,13.37
2019-01-04T00:03:37.186Z,12.53
2019-01-04T00:06:07.086Z,11.80
2019-01-04T00:08:36.645Z,13.40
2019-01-04T00:11:06.162Z,13.80
2019-01-04T00:13:35.694Z,13.00
2019-01-04T00:16:05.226Z,13.93
2019-01-04T00:18:34.910Z,12.93
2019-01-04T00:21:04.495Z,16.00
2019-01-04T00:23:34.406Z,13.50
2019-01-04T00:26:03.905Z,15.60
2019-01-04T00:28:33.459Z,15.53
2019-01-04T00:31:02.986Z,12.60
2019-01-04T00:33:32.634Z,13.57
2019-01-04T00:36:02.490Z,14.37
2019-01-04T00:38:32.427Z,15.17
2019-01-04T00:41:02.009Z,14.30
2019-01-04T00:43:31.512Z,14.47
2019-01-04T00:46:01.089Z,16.27
2019-01-04T00:48:30.602Z,16.10
2019-01-04T00:51:00.581Z,16.33
2019-01-04T00:53:30.079Z,16.77
2019-01-04T00:56:37.808Z,16.77
2019-01-04T00:59:56.318Z,15.73
2019-01-04T01:03:01.694Z,17.93
2019-01-04T01:06:26.269Z,20.07
2019-01-04T01:09:36.097Z,21.40
2019-01-04T01:12:53.313Z,20.23
2019-01-04T01:16:15.882Z,19.30
2019-01-04T01:19:26.184Z,21.30
2019-01-04T01:22:56.258Z,21.10
2019-01-04T01:25:57.517Z,19.97
2019-01-04T01:29:25.813Z,19.03
2019-01-04T01:32:19.541Z,21.00
2019-01-04T01:35:25.794Z,20.10
2019-01-04T01:38:54.845Z,17.27
2019-01-04T01:42:05.797Z,21.10
2019-01-04T01:45:21.816Z,20.20
2019-01-04T01:48:09.955Z,19.70
2019-01-04T01:51:09.773Z,19.63
2019-01-04T01:53:47.139Z,19.83
2019-01-04T01:56:16.700Z,22.20
2019-01-04T01:58:46.345Z,20.40
2019-01-04T02:01:15.852Z,22.30
2019-01-04T02:03:45.416Z,21.50
2019-01-04T02:06:15.277Z,23.60
2019-01-04T02:08:44.807Z,22.20
2019-01-04T02:11:14.368Z,22.80
2019-01-04T02:13:43.872Z,23.37
2019-01-04T02:16:13.448Z,24.80
2019-01-04T02:18:42.968Z,23.27
2019-01-04T02:21:12.817Z,24.77
2019-01-04T02:23:42.362Z,25.27
2019-01-04T02:26:11.867Z,24.93
2019-01-04T02:28:41.423Z,25.10
2019-01-04T02:31:11.001Z,27.27
2019-01-04T02:33:40.557Z,24.47
2019-01-04T02:36:10.483Z,24.27
2019-01-04T02:38:40.041Z,23.43
2019-01-04T02:41:09.563Z,26.13
2019-01-04T02:43:39.488Z,23.27
2019-01-04T02:46:09.276Z,21.77
2019-01-04T02:48:38.820Z,22.57
2019-01-04T02:51:08.374Z,22.20
2019-01-04T02:53:37.919Z,23.73
2019-01-04T02:56:07.464Z,21.80
2019-01-04T02:58:37.034Z,21.93
2019-01-04T03:01:07.094Z,19.30
2019-01-04T03:03:36.656Z,21.60
2019-01-04T03:06:06.192Z,20.43
2019-01-04T03:08:36.179Z,20.73
2019-01-04T03:11:05.692Z,19.83
2019-01-04T03:13:35.619Z,18.57
2019-01-04T03:16:05.923Z,19.17
2019-01-04T03:18:35.862Z,20.10
2019-01-04T03:21:05.407Z,20.13
2019-01-04T03:23:34.973Z,20.67
2019-01-04T03:26:04.480Z,19.90
2019-01-04T03:28:34.341Z,18.60
2019-01-04T03:31:03.851Z,18.30
2019-01-04T03:33:33.388Z,18.70
2019-01-04T03:36:02.919Z,17.83
2019-01-04T03:38:32.505Z,17.30
2019-01-04T03:41:02.048Z,17.00
2019-01-04T03:43:31.576Z,17.20
2019-01-04T03:46:01.152Z,17.13
2019-01-04T03:48:30.733Z,16.83
2019-01-04T03:51:01.115Z,17.67
2019-01-04T03:53:30.657Z,16.37
2019-01-04T03:56:00.220Z,17.50
2019-01-04T03:58:29.774Z,16.97
2019-01-04T04:00:59.341Z,16.70
2019-01-04T04:03:28.874Z,16.37
2019-01-04T04:05:58.391Z,15.97
2019-01-04T04:08:27.929Z,17.07
2019-01-04T04:10:57.448Z,15.10
2019-01-04T04:13:26.965Z,16.00
2019-01-04T04:15:56.971Z,15.23
2019-01-04T04:18:26.537Z,16.43
2019-01-04T04:20:56.069Z,15.83
2019-01-04T04:23:25.919Z,15.90
2019-01-04T04:25:57.204Z,14.90
2019-01-04T04:28:26.764Z,15.53
2019-01-04T04:30:56.266Z,17.00
2019-01-04T04:33:25.796Z,16.27
2019-01-04T04:35:55.447Z,16.70
2019-01-04T04:38:24.965Z,16.10
2019-01-04T04:40:54.467Z,15.50
2019-01-04T04:43:24.124Z,16.30
2019-01-04T04:45:53.639Z,16.30
2019-01-04T04:48:23.625Z,15.40
2019-01-04T04:50:53.213Z,15.60
2019-01-04T04:53:23.098Z,15.10
2019-01-04T04:55:52.628Z,15.03
2019-01-04T04:58:22.165Z,15.63
2019-01-04T05:00:51.878Z,14.93
2019-01-04T05:03:21.417Z,15.00
2019-01-04T05:05:51.480Z,16.80
2019-01-04T05:08:21.358Z,15.20
2019-01-04T05:10:50.885Z,15.47
2019-01-04T05:13:20.420Z,15.30
2019-01-04T05:15:49.952Z,15.40
2019-01-04T05:18:19.492Z,13.80
2019-01-04T05:20:49.320Z,15.70
2019-01-04T05:23:18.893Z,13.77
2019-01-04T05:25:48.419Z,13.80
2019-01-04T05:28:18.510Z,13.57
2019-01-04T05:30:48.062Z,14.80
2019-01-04T05:33:17.917Z,14.00
2019-01-04T05:35:47.424Z,13.93
2019-01-04T05:38:16.947Z,15.27
2019-01-04T05:40:46.569Z,14.53
2019-01-04T05:43:16.072Z,14.03
2019-01-04T05:45:45.592Z,15.20
2019-01-04T05:48:15.175Z,15.53
2019-01-04T05:50:44.701Z,16.60
2019-01-04T05:53:14.276Z,17.30
2019-01-04T05:55:43.810Z,17.83
2019-01-04T05:58:14.079Z,17.37
2019-01-04T06:00:43.633Z,18.27
2019-01-04T06:03:13.978Z,17.93
2019-01-04T06:05:43.785Z,16.17
2019-01-04T06:08:13.624Z,17.33
2019-01-04T06:10:43.237Z,18.17
2019-01-04T06:13:12.809Z,16.90
2019-01-04T06:15:42.315Z,17.53
2019-01-04T06:18:11.815Z,16.10
2019-01-04T06:20:41.349Z,16.70
2019-01-04T06:23:11.329Z,16.47
2019-01-04T06:25:41.491Z,16.60
2019-01-04T06:28:11.072Z,15.30
2019-01-04T06:30:40.572Z,15.97
2019-01-04T06:33:10.137Z,14.90
2019-01-04T06:35:39.702Z,14.53
2019-01-04T06:38:09.631Z,14.43
2019-01-04T06:40:39.205Z,14.83
2019-01-04T06:43:09.645Z,14.67
2019-01-04T06:45:39.193Z,14.70
2019-01-04T06:48:08.820Z,14.67
2019-01-04T06:50:38.375Z,11.53
2019-01-04T06:53:07.961Z,11.73
2019-01-04T06:55:51.305Z,10.00
2019-01-04T06:58:20.798Z,10.30
2019-01-04T07:00:50.624Z,9.67
2019-01-04T07:03:21.049Z,10.30
2019-01-04T07:05:51.674Z,9.67
2019-01-04T07:08:21.784Z,9.47
2019-01-04T07:10:51.490Z,8.53
2019-01-04T07:13:21.062Z,9.43
2019-01-04T07:15:51.003Z,8.03
2019-01-04T07:18:20.589Z,8.50
2019-01-04T07:20:50.129Z,9.10
2019-01-04T07:23:20.081Z,7.90
2019-01-04T07:25:49.650Z,7.87
2019-01-04T07:28:19.185Z,8.03
2019-01-04T07:30:48.727Z,7.13
2019-01-04T07:33:27.546Z,6.43
2019-01-04T07:35:57.156Z,6.73
2019-01-04T07:38:26.791Z,6.17
2019-01-04T07:40:56.442Z,6.17
2019-01-04T07:43:26.009Z,5.37
2019-01-04T07:45:58.750Z,5.23
2019-01-04T07:48:28.330Z,5.70
2019-01-04T07:50:59.057Z,5.80
2019-01-04T07:53:28.946Z,5.50
2019-01-04T07:55:58.509Z,6.00
2019-01-04T07:58:36.284Z,5.07
2019-01-04T08:01:10.326Z,5.33
2019-01-04T08:03:41.139Z,4.93
2019-01-04T08:06:11.140Z,4.53
2019-01-04T08:08:43.184Z,6.47
2019-01-04T08:11:16.159Z,5.83
2019-01-04T08:13:45.826Z,5.00
2019-01-04T08:16:16.054Z,4.60
2019-01-04T08:18:53.364Z,5.13
2019-01-04T08:21:24.871Z,5.03
2019-01-04T08:23:55.742Z,5.73
2019-01-04T08:26:25.507Z,5.00
2019-01-04T08:28:56.121Z,6.23
2019-01-04T08:31:27.255Z,5.63
2019-01-04T08:33:56.742Z,4.90
2019-01-04T08:36:27.112Z,4.80
2019-01-04T08:38:57.121Z,4.53
2019-01-04T08:41:26.828Z,5.00
2019-01-04T08:43:56.358Z,4.27
2019-01-04T08:46:27.348Z,4.77
2019-01-04T08:48:56.876Z,4.00
2019-01-04T08:51:28.967Z,5.00
2019-01-04T08:54:09.482Z,4.20
2019-01-04T08:56:39.911Z,4.00
2019-01-04T08:59:09.825Z,3.43
2019-01-04T09:01:40.103Z,3.53
2019-01-04T09:04:10.398Z,4.50
2019-01-04T09:06:40.293Z,4.20
2019-01-04T09:09:09.917Z,4.23
2019-01-04T09:11:40.340Z,4.40
2019-01-04T09:14:10.683Z,5.00
2019-01-04T09:16:40.212Z,4.80
2019-01-04T09:19:10.112Z,5.77
2019-01-04T09:21:39.629Z,5.17
2019-01-04T09:24:09.615Z,5.10
2019-01-04T09:26:39.962Z,4.73
2019-01-04T09:29:10.315Z,5.20
2019-01-04T09:31:40.384Z,4.80
2019-01-04T09:34:09.916Z,5.60
2019-01-04T09:36:39.473Z,4.90
2019-01-04T09:39:10.241Z,5.33
2019-01-04T09:41:56.324Z,4.87
2019-01-04T09:44:25.883Z,5.70
2019-01-04T09:46:55.883Z,5.83
2019-01-04T09:49:25.444Z,5.80
2019-01-04T09:51:55.063Z,7.47
2019-01-04T09:54:25.068Z,5.50
2019-01-04T09:56:54.552Z,5.60
2019-01-04T09:59:24.086Z,6.93
2019-01-04T10:01:54.014Z,6.00
2019-01-04T10:04:23.921Z,6.90
2019-01-04T10:06:53.536Z,7.03
2019-01-04T10:09:23.323Z,6.67
2019-01-04T10:11:53.228Z,8.33
2019-01-04T10:14:22.762Z,8.47
2019-01-04T10:16:53.262Z,7.70
2019-01-04T10:19:22.928Z,8.10
2019-01-04T10:21:53.197Z,8.10
2019-01-04T10:24:22.744Z,9.13
2019-01-04T10:26:52.639Z,8.40
2019-01-04T10:29:22.185Z,9.33
2019-01-04T10:31:52.064Z,8.40
2019-01-04T10:34:21.653Z,8.63
2019-01-04T10:36:51.603Z,7.17
2019-01-04T10:39:21.144Z,8.37
2019-01-04T10:41:50.686Z,8.93
2019-01-04T10:44:20.674Z,8.87
2019-01-04T10:46:50.342Z,8.10
2019-01-04T10:49:20.401Z,8.40
2019-01-04T10:51:50.393Z,8.73
2019-01-04T10:54:20.325Z,9.77
2019-01-04T10:56:49.872Z,8.87
2019-01-04T10:59:19.425Z,8.70
2019-01-04T11:01:48.932Z,9.63
2019-01-04T11:04:18.894Z,9.40
2019-01-04T11:06:48.435Z,9.00
2019-01-04T11:09:18.098Z,7.90
2019-01-04T11:11:47.607Z,9.37
2019-01-04T11:14:17.173Z,9.40
2019-01-04T11:16:46.719Z,9.57
2019-01-04T11:19:16.255Z,9.20
2019-01-04T11:21:45.766Z,9.53
2019-01-04T11:24:52.352Z,9.03
2019-01-04T11:27:40.402Z,8.60
2019-01-04T11:30:38.303Z,10.33
2019-01-04T11:33:57.053Z,9.90
2019-01-04T11:36:35.830Z,10.43
2019-01-04T11:40:02.019Z,10.57
2019-01-04T11:43:07.583Z,10.93
2019-01-04T11:46:15.023Z,10.20
2019-01-04T11:49:20.819Z,10.10
2019-01-04T11:52:22.008Z,10.63
2019-01-04T11:54:51.707Z,11.37
2019-01-04T11:57:21.517Z,11.97
2019-01-04T11:59:51.526Z,9.73
2019-01-04T12:02:26.204Z,12.10
2019-01-04T12:04:55.112Z,11.90
2019-01-04T12:07:26.354Z,12.23
2019-01-04T12:09:55.927Z,11.30
2019-01-04T12:12:25.715Z,10.30
2019-01-04T12:14:55.475Z,10.10
2019-01-04T12:17:25.086Z,10.57
2019-01-04T12:19:55.722Z,9.90
2019-01-04T12:22:25.865Z,11.30
2019-01-04T12:24:55.776Z,11.30
2019-01-04T12:27:26.209Z,9.83
2019-01-04T12:29:55.764Z,10.63
2019-01-04T12:32:25.289Z,9.80
2019-01-04T12:34:54.846Z,10.10
2019-01-04T12:37:25.048Z,10.33
2019-01-04T12:39:54.556Z,10.53
2019-01-04T12:42:24.144Z,10.30
2019-01-04T12:44:53.665Z,11.63
2019-01-04T12:47:23.183Z,10.10
2019-01-04T12:49:52.757Z,10.03
2019-01-04T12:52:22.565Z,11.70
2019-01-04T12:54:52.142Z,11.93
2019-01-04T12:57:21.648Z,11.47
2019-01-04T12:59:51.188Z,10.90
2019-01-04T13:02:20.689Z,11.40
2019-01-04T13:04:50.700Z,10.00
2019-01-04T13:07:20.246Z,11.23
2019-01-04T13:09:50.152Z,12.47
2019-01-04T13:12:19.663Z,11.80
2019-01-04T13:14:49.729Z,10.53
2019-01-04T13:17:19.283Z,11.50
2019-01-04T13:19:48.837Z,11.00
2019-01-04T13:22:18.364Z,11.40
2019-01-04T13:24:47.868Z,11.20
2019-01-04T13:27:17.439Z,11.53
2019-01-04T13:29:47.349Z,11.80
2019-01-04T13:32:16.968Z,12.93
2019-01-04T13:34:46.473Z,12.60
2019-01-04T13:37:16.446Z,12.60
2019-01-04T13:39:45.992Z,11.33
2019-01-04T13:42:15.846Z,11.07
2019-01-04T13:44:45.728Z,12.27
2019-01-04T13:47:15.251Z,12.40
2019-01-04T13:49:44.848Z,12.57
2019-01-04T13:52:14.396Z,11.53
2019-01-04T13:54:43.938Z,12.27
2019-01-04T13:57:13.492Z,13.07
2019-01-04T13:59:43.053Z,10.83
2019-01-04T14:02:12.586Z,10.40
2019-01-04T14:04:42.129Z,11.03
2019-01-04T14:07:11.685Z,12.53
2019-01-04T14:09:41.229Z,12.70
2019-01-04T14:12:10.776Z,11.90
2019-01-04T14:14:40.316Z,11.90
2019-01-04T14:17:09.845Z,12.90
2019-01-04T14:19:39.814Z,13.17
2019-01-04T14:22:09.332Z,11.97
2019-01-04T14:24:38.884Z,13.90
2019-01-04T14:27:08.452Z,12.10
2019-01-04T14:29:38.048Z,11.67
2019-01-04T14:32:07.949Z,12.40
2019-01-04T14:34:37.497Z,11.80
2019-01-04T14:37:07.008Z,11.67
2019-01-04T14:39:36.576Z,11.83
2019-01-04T14:42:06.082Z,13.27
2019-01-04T14:44:35.649Z,12.87
2019-01-04T14:47:05.177Z,14.03
2019-01-04T14:49:34.698Z,13.70
2019-01-04T14:52:04.241Z,11.73
2019-01-04T14:54:33.762Z,14.40
2019-01-04T14:57:03.285Z,14.60
2019-01-04T14:59:32.873Z,14.13
2019-01-04T15:02:02.379Z,14.60
2019-01-04T15:04:31.909Z,15.47
2019-01-04T15:07:01.461Z,14.40
2019-01-04T15:09:30.936Z,14.83
2019-01-04T15:12:00.496Z,14.47
2019-01-04T15:14:30.032Z,15.00
2019-01-04T15:16:59.582Z,14.93
2019-01-04T15:19:29.080Z,14.47
2019-01-04T15:21:59.169Z,15.57
2019-01-04T15:24:28.690Z,15.60
2019-01-04T15:26:58.216Z,13.70
2019-01-04T15:29:27.789Z,14.00
2019-01-04T15:31:57.330Z,16.20
2019-01-04T15:34:26.995Z,15.40
2019-01-04T15:36:56.512Z,15.33
2019-01-04T15:39:26.027Z,16.83
2019-01-04T15:41:55.532Z,15.00
2019-01-04T15:44:25.247Z,17.33
2019-01-04T15:46:55.128Z,16.60
2019-01-04T15:49:24.914Z,16.57
2019-01-04T15:51:54.448Z,17.13
2019-01-04T15:54:24.361Z,15.73
2019-01-04T15:56:53.901Z,17.27
2019-01-04T15:59:23.728Z,16.37
2019-01-04T16:01:53.270Z,17.70
2019-01-04T16:04:22.801Z,18.43
2019-01-04T16:06:52.366Z,17.90
2019-01-04T16:09:22.571Z,16.23
2019-01-04T16:11:52.570Z,19.83
2019-01-04T16:14:22.522Z,20.03
2019-01-04T16:16:52.094Z,20.03
2019-01-04T16:19:21.620Z,21.20
2019-01-04T16:21:51.578Z,19.27
2019-01-04T16:24:21.107Z,18.23
2019-01-04T16:26:50.777Z,19.00
2019-01-04T16:29:20.346Z,17.60
2019-01-04T16:31:49.870Z,15.77
2019-01-04T16:34:19.425Z,16.57
2019-01-04T16:36:49.018Z,16.87
2019-01-04T16:39:18.528Z,17.70
2019-01-04T16:41:48.051Z,18.47
2019-01-04T16:44:17.607Z,18.10
2019-01-04T16:46:47.155Z,17.70
2019-01-04T16:49:16.675Z,18.90
2019-01-04T16:51:46.217Z,19.13
2019-01-04T16:54:15.731Z,19.13
2019-01-04T16:56:45.276Z,19.40
2019-01-04T16:59:14.845Z,19.63
2019-01-04T17:01:44.340Z,17.87
2019-01-04T17:04:13.883Z,18.90
2019-01-04T17:06:43.761Z,18.50
2019-01-04T17:09:13.703Z,17.77
2019-01-04T17:11:43.233Z,17.60
2019-01-04T17:14:12.712Z,16.63
2019-01-04T17:16:42.236Z,15.90
2019-01-04T17:19:12.098Z,15.30
2019-01-04T17:21:41.674Z,14.30
2019-01-04T17:24:11.159Z,15.70
2019-01-04T17:26:40.694Z,14.00
2019-01-04T17:29:10.620Z,15.60
2019-01-04T17:31:40.164Z,14.90
2019-01-04T17:34:09.743Z,13.87
2019-01-04T17:36:39.280Z,13.30
2019-01-04T17:39:10.309Z,14.20
2019-01-04T17:41:39.796Z,14.13
2019-01-04T17:44:09.314Z,14.73
2019-01-04T17:46:38.819Z,15.90
2019-01-04T17:49:08.393Z,16.10
2019-01-04T17:51:39.745Z,15.10
2019-01-04T17:54:09.330Z,15.17
2019-01-04T17:56:39.133Z,15.40
2019-01-04T17:59:08.912Z,13.70
2019-01-04T18:01:41.261Z,14.07
2019-01-04T18:04:10.799Z,13.90
2019-01-04T18:06:40.435Z,14.83
2019-01-04T18:09:09.966Z,13.13
2019-01-04T18:11:39.497Z,13.47
2019-01-04T18:14:09.040Z,13.50
2019-01-04T18:16:38.699Z,14.37
2019-01-04T18:19:08.255Z,14.33
2019-01-04T18:21:37.757Z,14.43
2019-01-04T18:24:07.703Z,14.37
2019-01-04T18:26:37.808Z,15.00
2019-01-04T18:29:07.327Z,15.20
2019-01-04T18:31:36.865Z,15.80
2019-01-04T18:34:06.707Z,14.43
2019-01-04T18:36:36.214Z,14.87
2019-01-04T18:39:07.250Z,15.50
2019-01-04T18:41:37.112Z,14.40
2019-01-04T18:44:06.638Z,14.97
2019-01-04T18:46:36.546Z,14.70
2019-01-04T18:49:06.064Z,14.53
2019-01-04T18:51:36.367Z,15.20
2019-01-04T18:54:05.881Z,15.40
2019-01-04T18:56:35.825Z,15.17
2019-01-04T18:59:05.627Z,13.17
2019-01-04T19:01:35.139Z,14.07
2019-01-04T19:04:04.635Z,15.67
2019-01-04T19:06:34.144Z,13.67
2019-01-04T19:09:03.933Z,15.00
2019-01-04T19:11:33.420Z,14.10
2019-01-04T19:14:02.989Z,14.90
2019-01-04T19:16:32.482Z,14.67
2019-01-04T19:19:02.392Z,14.47
2019-01-04T19:21:31.982Z,13.83
2019-01-04T19:24:01.484Z,13.90
2019-01-04T19:26:31.008Z,14.50
2019-01-04T19:29:00.678Z,14.70
2019-01-04T19:31:30.196Z,14.73
2019-01-04T19:33:59.690Z,14.57
2019-01-04T19:36:30.030Z,13.57
2019-01-04T19:39:00.958Z,13.07
2019-01-04T19:41:31.455Z,13.73
2019-01-04T19:44:18.132Z,13.77
2019-01-04T19:46:47.682Z,14.30
2019-01-04T19:49:17.292Z,13.47
2019-01-04T19:51:46.896Z,14.43
2019-01-04T19:54:18.999Z,13.60
2019-01-04T19:56:48.693Z,12.50
2019-01-04T19:59:18.258Z,12.80
2019-01-04T20:01:49.913Z,13.27
2019-01-04T20:04:21.935Z,11.90
2019-01-04T20:07:33.893Z,13.03
2019-01-04T20:11:16.111Z,13.17
2019-01-04T20:14:41.959Z,15.00
2019-01-04T20:17:38.812Z,13.93
2019-01-04T20:20:41.832Z,14.73
2019-01-04T20:23:36.510Z,13.57
2019-01-04T20:26:37.554Z,14.80
2019-01-04T20:29:39.267Z,13.90
2019-01-04T20:32:26.724Z,14.50
2019-01-04T20:35:21.366Z,12.70
2019-01-04T20:38:09.284Z,13.83
2019-01-04T20:40:56.874Z,13.87
2019-01-04T20:43:48.146Z,12.77
2019-01-04T20:46:48.574Z,12.47
2019-01-04T20:49:43.429Z,13.87
2019-01-04T20:52:30.444Z,13.33
2019-01-04T20:55:21.976Z,12.40
2019-01-04T20:58:10.845Z,11.53
2019-01-04T21:01:12.259Z,13.70
2019-01-04T21:03:59.270Z,12.20
2019-01-04T21:06:56.685Z,12.73
2019-01-04T21:09:57.202Z,10.07
2019-01-04T21:12:55.069Z,10.73
2019-01-04T21:15:43.883Z,10.40
2019-01-04T21:18:31.157Z,9.40
2019-01-04T21:21:19.275Z,9.10
2019-01-04T21:24:06.494Z,9.77
2019-01-04T21:27:04.018Z,10.03
2019-01-04T21:29:52.841Z,10.23
2019-01-04T21:32:59.632Z,9.60
2019-01-04T21:35:46.570Z,9.70
2019-01-04T21:38:34.204Z,10.83
2019-01-04T21:41:27.773Z,9.90
2019-01-04T21:44:16.119Z,9.33
2019-01-04T21:47:13.825Z,7.87
2019-01-04T21:50:05.107Z,8.27
2019-01-04T21:52:53.553Z,8.37
2019-01-04T21:55:40.612Z,7.07
2019-01-04T21:58:35.079Z,7.20
2019-01-04T22:01:29.238Z,7.60
2019-01-04T22:04:33.064Z,7.97
2019-01-04T22:07:19.922Z,7.23
2019-01-04T22:10:14.757Z,6.97
2019-01-04T22:13:12.205Z,6.87
2019-01-04T22:15:58.922Z,6.60
2019-01-04T22:19:01.779Z,7.40
2019-01-04T22:21:48.355Z,6.80
2019-01-04T22:24:39.160Z,7.47
2019-01-04T22:27:27.479Z,7.40
2019-01-04T22:30:28.208Z,8.00
2019-01-04T22:33:15.719Z,6.83
2019-01-04T22:36:03.095Z,7.53
2019-01-04T22:39:06.786Z,7.20
2019-01-04T22:42:02.673Z,7.60
2019-01-04T22:44:48.038Z,8.00
2019-01-04T22:47:36.426Z,8.03
2019-01-04T22:50:40.258Z,8.23
2019-01-04T22:53:28.739Z,8.33
2019-01-04T22:56:20.818Z,8.53
2019-01-04T22:59:12.318Z,8.10
2019-01-04T23:02:03.561Z,8.20
2019-01-04T23:04:50.784Z,8.30
2019-01-04T23:07:45.349Z,7.87
2019-01-04T23:10:44.978Z,9.13
2019-01-04T23:13:33.349Z,7.50
2019-01-04T23:16:14.702Z,7.60
2019-01-04T23:19:13.939Z,7.90
2019-01-04T23:22:23.638Z,8.77
2019-01-04T23:25:25.383Z,7.60
2019-01-04T23:28:32.130Z,8.57
2019-01-04T23:31:26.206Z,8.90
2019-01-04T23:34:13.288Z,9.07
2019-01-04T23:37:10.842Z,8.80
2019-01-04T23:39:59.771Z,8.50
2019-01-04T23:42:47.506Z,9.27
2019-01-04T23:45:42.549Z,9.17
2019-01-04T23:48:32.677Z,10.80
2019-01-04T23:51:30.545Z,9.67
2019-01-04T23:54:16.779Z,8.70
2019-01-04T23:57:03.997Z,8.83
2019-01-04T23:59:55.405Z,8.03
